Historyczne dane pomiarowe

Dodano dane terminowe – wersja testowa.

Dane z okresu 1951-2019

Wersja bazy: 1.34 [2019-03-16, lista zmian], aktualizacja planowana na 2019-04-15

Dane meteo z obszaru Polski uzyskane na podstawie danych udostępnionych przez Instytut Meteorologii i Gospodarki Wodnej – Państwowy Instytut Badawczy.

 

Wybierz Datę:    

       

TemperaturaWilgotnośćWiatrCiśnienieOpadyŚniegCzas trwania zjawisk
 Stacja t tx tn tng RH VA  wxwx mslp ppp RRR   cm mm wxwxwxwxwxwxwx
1983-08-14 13.5 18.5 9.9 7.7-- 2.3 3.3---- 0.2------------
1983-08-13 14.8 20.0 13.0 8.4-- 6.3 4.3---- 1.8------------
1983-08-12 20.6 27.5 14.9 13.0-- 1.3 1.7---- 1.0------------
1983-08-11 20.4 26.2 15.9 11.8-- 2.7 2.3---- 0.4------------
1983-08-10 20.5 27.0 12.9 9.1-- 2.0 1.7---- 0.0------------
1983-08-09 20.9 27.0 14.1 11.9-- 2.0 2.3---- 0.0------------
1983-08-08 21.3 29.2 15.1 12.1-- 3.0 3.0---- 1.3------------
1983-08-07 21.8 29.0 14.1 12.7-- 2.3 2.3---- 0.0------------
1983-08-06 18.5 24.1 11.8 7.7-- 3.3 1.0---- 0.0------------
1983-08-05 15.8 17.4 13.7 12.7-- 6.3 1.0---- 0.2------------
1983-08-04 20.5 26.0 15.7 15.3-- 8.0 1.0---- 25.0------------
1983-08-03 24.1 30.0 16.9 11.8-- 1.3 1.7---- 0.0------------
1983-08-02 22.4 29.0 14.9 10.2-- 1.3 3.7---- 0.0------------
1983-08-01 20.2 26.6 10.9 5.4-- 1.3 1.7---- 0.0------------
1983-07-31 17.8 23.8 9.9 7.9-- 2.0 3.0---- 0.0------------
1983-07-30 16.7 19.8 13.9 9.6-- 4.7 4.3---- 0.2------------
1983-07-29 18.4 23.0 14.9 12.7-- 7.0 2.3---- 0.2------------
1983-07-28 21.7 27.0 18.9 14.2-- 6.7 3.0---- 0.0------------
1983-07-27 22.7 29.0 15.1 11.4-- 2.7 2.3---- 0.0------------
1983-07-26 20.6 28.0 15.1 12.7-- 4.7 4.3---- 0.5------------
1983-07-25 14.6 17.2 10.0 5.2-- 6.7 5.0---- 1.3------------
1983-07-24 14.9 21.0 8.9 6.2-- 6.0 1.0---- 0.2------------
1983-07-23 13.3 18.0 10.3 8.3-- 7.3 3.0---- 1.4------------
1983-07-22 13.5 18.0 10.5 8.2-- 4.0 3.7---- 12.4------------
1983-07-21 11.6 17.0 6.0 6.2-- 2.0 2.3---- 1.6------------
1983-07-20 15.5 23.0 10.1 9.6-- 4.0 1.0---- 4.0------------
1983-07-19 21.4 25.5 14.7 10.6-- 2.0 2.3---- 0.3------------
1983-07-18 18.7 27.0 8.1 7.7-- 1.3 1.7---- 0.0------------
1983-07-17 17.9 22.0 11.4 9.1-- 2.0 2.3---- 0.0------------
1983-07-16 21.3 27.0 15.7 12.7-- 2.0 2.3---- 0.0------------
1983-07-15 18.4 23.5 12.5 10.9-- 2.0 3.0---- 0.0------------
1983-07-14 19.5 23.0 15.9 14.2-- 2.0 4.3---- 0.3------------
1983-07-13 19.0 26.0 12.9 11.1-- 4.7 1.0---- 0.0------------
1983-07-12 17.3 21.0 13.9 11.6-- 7.3 2.3---- 4.3------------
1983-07-11 17.9 25.0 15.9 13.7-- 6.7 1.7---- 18.3------------
1983-07-10 20.4 27.5 12.9 9.6-- 3.3 1.7---- 1.4------------
1983-07-09 20.9 28.0 13.9 9.1-- 1.3 3.7---- 0.0------------
1983-07-08 18.4 23.8 10.1 3.3-- 1.3 3.0---- 0.0------------
1983-07-07 17.7 24.0 9.9 4.3-- 1.3 1.7---- 0.0------------
1983-07-06 17.2 23.0 9.9 5.7-- 1.3 1.7---- 0.0------------
1983-07-05 17.1 22.0 12.4 9.4-- 2.0 2.3---- 0.0------------
1983-07-04 19.0 25.5 9.7 6.3-- 2.0 1.0---- 0.0------------
1983-07-03 17.4 23.0 7.9 4.3-- 1.3 1.7---- 0.0------------
1983-07-02 18.6 23.0 13.0 9.6-- 2.0 2.3---- 0.0------------
1983-07-01 19.7 25.0 14.9 12.7-- 3.3 3.0---- 0.0------------
1983-06-30 17.2 22.7 6.8 2.3-- 2.0 1.0---- 0.0------------
1983-06-29 15.6 20.0 7.9 5.9-- 4.3 3.0---- 0.0------------
1983-06-28 16.9 19.8 14.9 13.7-- 6.0 2.3---- 0.5------------
1983-06-27 17.1 22.2 11.1 5.9-- 6.0 1.0---- 1.2------------
1983-06-26 16.3 21.6 10.4 5.7-- 4.0 2.3---- 0.0------------
1983-06-25 18.7 27.8 8.6 7.0-- 2.0 3.7---- 1.2------------
1983-06-24 17.3 24.8 7.0 5.7-- 2.0 2.3---- 0.0------------
1983-06-23 13.5 19.0 1.9 0.7-- 1.3 2.3---- 0.0------------
1983-06-22 11.4 17.0 5.0 0.7-- 1.7 1.0---- 0.0------------
1983-06-21 16.3 22.6 10.4 8.2-- 1.3 3.0---- 0.0------------
1983-06-20 19.1 24.2 12.1 9.8-- 2.0 2.3---- 0.0------------
1983-06-19 17.7 21.0 13.9 8.2-- 6.7 5.7---- 0.0------------
1983-06-18 15.3 22.0 10.2 9.1-- 6.7 6.0---- 1.0------------
1983-06-17 14.8 18.0 10.4 9.6-- 6.7 3.7---- 0.0------------
1983-06-16 14.5 17.2 12.4 11.4-- 5.0 5.7---- 0.3------------
349.7 ms

 

Źródłem pochodzenia danych jest Instytut Meteorologii i Gospodarki Wodnej – Państwowy Instytut Badawczy. Dane Instytutu Meteorologii i Gospodarki Wodnej – Państwowego Instytutu Badawczego zostały przetworzone.

Dane źródłowe można odnaleźć na stronie https://dane.imgw.pl